Time;durP1;ratioP1;P1;durP2;ratioP2;P2;SDS_P1;SDS_P2;PMS_P1;PMS_P2;Temp;Humidity;BMP_temperature;BMP_pressure;BME280_temperature;BME280_humidity;BME280_pressure;Samples;Min_cycle;Max_cycle;Signal;HPM_P1;HPM_P2
2023/07/26 00:01:03;;;;;;;4.30;1.98;;;;;;;;;;6184223;23;20024;-87
2023/07/26 00:03:29;;;;;;;4.28;2.17;;;;;;;;;;6185907;23;20013;-89
2023/07/26 00:05:54;;;;;;;3.88;1.88;;;13.90;72.30;;;;;;6159699;23;20017;-85
2023/07/26 00:08:20;;;;;;;4.80;1.80;;;13.90;72.90;;;;;;6135183;23;20064;-88
2023/07/26 00:10:46;;;;;;;10.63;2.45;;;14.00;73.00;;;;;;6135376;23;20025;-87
2023/07/26 00:13:15;;;;;;;2.63;1.60;;;13.70;71.00;;;;;;6184383;23;20045;-87
2023/07/26 00:15:41;;;;;;;4.18;2.25;;;;;;;;;;6183863;23;20401;-86
2023/07/26 00:18:07;;;;;;;5.07;2.05;;;;;;;;;;6159426;23;20025;-86
2023/07/26 00:20:33;;;;;;;3.75;2.67;;;13.70;72.40;;;;;;6184234;23;20017;-88
2023/07/26 00:22:59;;;;;;;2.55;1.70;;;;;;;;;;6184527;23;20072;-86
2023/07/26 00:25:25;;;;;;;4.97;2.22;;;;;;;;;;6184018;23;20032;-87
2023/07/26 00:27:52;;;;;;;3.50;2.22;;;;;;;;;;6184271;23;20017;-85
2023/07/26 00:30:20;;;;;;;4.15;2.17;;;13.60;71.10;;;;;;6159488;23;20454;-83
2023/07/26 00:32:46;;;;;;;3.47;2.10;;;;;;;;;;6159547;23;20076;-86
2023/07/26 00:35:24;;;;;;;4.00;2.38;;;13.70;70.80;;;;;;6184001;23;20028;-80
2023/07/26 00:37:50;;;;;;;4.53;2.40;;;13.70;70.20;;;;;;6184130;23;20019;-82
2023/07/26 00:40:16;;;;;;;4.63;2.20;;;;;;;;;;6184164;23;20056;-87
2023/07/26 00:42:42;;;;;;;2.10;1.90;;;;;;;;;;6159122;23;20009;-82
2023/07/26 00:45:09;;;;;;;3.78;2.13;;;;;;;;;;6158702;23;20024;-84
2023/07/26 00:47:35;;;;;;;5.97;2.08;;;;;;;;;;6185495;23;20443;-86
2023/07/26 00:50:01;;;;;;;2.72;2.15;;;13.50;74.10;;;;;;6183652;23;20052;-85
2023/07/26 00:52:28;;;;;;;5.18;2.20;;;;;;;;;;6159703;23;20017;-86
2023/07/26 00:54:55;;;;;;;2.60;2.10;;;;;;;;;;6183864;23;20513;-84
2023/07/26 00:57:22;;;;;;;2.70;2.10;;;;;;;;;;6183832;23;20014;-84
2023/07/26 00:59:48;;;;;;;3.08;1.80;;;;;;;;;;6159200;23;20079;-85
2023/07/26 01:02:14;;;;;;;9.00;2.45;;;;;;;;;;6183904;23;20072;-84
2023/07/26 01:04:40;;;;;;;6.75;2.20;;;;;;;;;;6183668;23;20021;-84
2023/07/26 01:07:24;;;;;;;2.78;1.60;;;13.60;72.80;;;;;;6134677;23;20048;-82
2023/07/26 01:09:50;;;;;;;3.97;1.80;;;;;;;;;;6183545;23;20017;-87
2023/07/26 01:12:24;;;;;;;3.72;2.03;;;13.60;73.00;;;;;;6158932;23;20105;-83
2023/07/26 01:15:12;;;;;;;8.52;2.20;;;;;;;;;;6183737;23;20048;-86
2023/07/26 01:17:37;;;;;;;4.03;2.25;;;13.60;77.20;;;;;;6185117;23;20013;-85
2023/07/26 01:20:04;;;;;;;5.00;1.73;;;13.50;76.70;;;;;;6158524;23;20017;-86
2023/07/26 01:22:30;;;;;;;3.05;1.70;;;;;;;;;;6134282;23;20025;-85
2023/07/26 01:24:56;;;;;;;4.55;1.92;;;13.70;77.00;;;;;;6185309;23;20025;-84
2023/07/26 01:27:23;;;;;;;2.63;1.90;;;13.60;75.00;;;;;;6185404;23;20008;-87
2023/07/26 01:29:53;;;;;;;3.30;2.17;;;;;;;;;;6183557;23;20051;-84
2023/07/26 01:32:21;;;;;;;4.70;2.80;;;;;;;;;;6184194;23;20013;-85
2023/07/26 01:34:47;;;;;;;5.28;2.20;;;;;;;;;;6133396;23;20020;-87
2023/07/26 01:37:14;;;;;;;2.88;2.13;;;;;;;;;;6184745;23;20051;-86
2023/07/26 01:39:40;;;;;;;2.63;1.92;;;;;;;;;;6182707;23;20021;-86
2023/07/26 01:42:07;;;;;;;2.03;1.83;;;;;;;;;;6158498;23;20052;-83
2023/07/26 01:44:37;;;;;;;2.55;2.13;;;;;;;;;;6158045;23;20071;-86
2023/07/26 01:47:03;;;;;;;3.83;2.13;;;;;;;;;;6183600;23;20074;-83
2023/07/26 01:49:29;;;;;;;5.82;2.22;;;;;;;;;;6158424;23;20084;-82
2023/07/26 01:51:54;;;;;;;2.95;2.10;;;13.40;79.00;;;;;;6183365;23;20360;-85
2023/07/26 01:54:21;;;;;;;3.28;1.90;;;;;;;;;;6158205;23;20358;-85
2023/07/26 01:56:47;;;;;;;4.95;2.28;;;13.40;77.30;;;;;;6183066;23;20013;-85
2023/07/26 01:59:14;;;;;;;4.75;2.22;;;;;;;;;;6183379;23;20054;-83
2023/07/26 02:01:40;;;;;;;6.47;2.65;;;;;;;;;;6182859;23;20373;-84
2023/07/26 02:04:05;;;;;;;6.03;2.50;;;13.40;80.60;;;;;;6157985;23;20032;-86
2023/07/26 02:06:31;;;;;;;6.25;2.53;;;;;;;;;;6133898;23;20188;-84
2023/07/26 02:08:57;;;;;;;6.15;2.60;;;;;;;;;;6182996;23;20013;-84
2023/07/26 02:11:23;;;;;;;5.40;2.05;;;13.20;81.50;;;;;;6183137;23;20120;-82
2023/07/26 02:13:49;;;;;;;3.30;2.17;;;;;;;;;;6133216;23;20016;-84
2023/07/26 02:16:15;;;;;;;3.17;1.77;;;;;;;;;;6182742;23;20506;-87
2023/07/26 02:18:42;;;;;;;5.07;2.00;;;;;;;;;;6158120;23;20025;-86
2023/07/26 02:21:08;;;;;;;3.05;2.40;;;;;;;;;;6158311;23;20024;-87
2023/07/26 02:23:34;;;;;;;4.53;2.13;;;;;;;;;;6158363;23;20060;-87
2023/07/26 02:26:00;;;;;;;3.78;2.00;;;;;;;;;;6182896;23;20053;-84
2023/07/26 02:28:26;;;;;;;7.68;2.72;;;;;;;;;;6182978;23;20024;-84
2023/07/26 02:30:52;;;;;;;3.28;1.65;;;13.30;82.00;;;;;;6158626;23;20059;-86
2023/07/26 02:33:18;;;;;;;2.13;1.95;;;;;;;;;;6184335;23;20017;-83
2023/07/26 02:35:44;;;;;;;9.52;2.33;;;;;;;;;;6184319;23;20017;-84
2023/07/26 02:38:10;;;;;;;3.80;2.15;;;;;;;;;;6133752;23;20021;-86
2023/07/26 02:40:37;;;;;;;3.60;2.40;;;13.10;81.60;;;;;;6184077;23;20024;-82
2023/07/26 02:43:02;;;;;;;6.60;2.47;;;13.10;81.80;;;;;;6183155;23;20063;-84
2023/07/26 02:45:28;;;;;;;2.53;2.13;;;;;;;;;;6182727;23;20021;-82
2023/07/26 02:47:54;;;;;;;3.03;2.33;;;13.20;81.90;;;;;;6184230;23;20395;-85
2023/07/26 02:50:20;;;;;;;5.32;2.60;;;;;;;;;;6182109;23;20051;-83
2023/07/26 02:52:46;;;;;;;7.00;2.65;;;12.90;78.30;;;;;;6184826;23;20017;-84
2023/07/26 02:55:12;;;;;;;3.72;2.70;;;;;;;;;;6183004;23;20029;-83
2023/07/26 02:57:39;;;;;;;7.88;2.95;;;;;;;;;;6182810;23;20450;-84
2023/07/26 03:00:05;;;;;;;4.00;3.30;;;;;;;;;;6182555;23;20021;-86
2023/07/26 03:02:31;;;;;;;6.30;3.70;;;12.80;82.80;;;;;;6184409;23;20045;-86
2023/07/26 03:04:57;;;;;;;4.70;3.67;;;;;;;;;;6157905;23;20020;-83
2023/07/26 03:07:23;;;;;;;9.18;3.65;;;12.80;82.60;;;;;;6182461;23;20362;-86
2023/07/26 03:09:49;;;;;;;3.90;3.40;;;;;;;;;;6182587;23;20446;-85
2023/07/26 03:12:15;;;;;;;9.63;3.38;;;;;;;;;;6133545;23;20032;-84
2023/07/26 03:14:41;;;;;;;4.78;3.40;;;;;;;;;;6157415;23;20045;-82
2023/07/26 03:17:09;;;;;;;6.95;3.65;;;12.70;79.20;;;;;;6157454;23;20021;-83
2023/07/26 03:19:35;;;;;;;5.22;2.92;;;;;;;;;;6157727;23;20017;-79
2023/07/26 03:22:01;;;;;;;4.07;3.00;;;;;;;;;;6157970;23;20021;-79
2023/07/26 03:24:27;;;;;;;6.72;3.03;;;;;;;;;;6157324;23;20021;-80
2023/07/26 03:26:53;;;;;;;4.55;3.72;;;;;;;;;;6157483;23;20013;-77
2023/07/26 03:29:19;;;;;;;9.52;3.75;;;;;;;;;;6157915;23;20021;-79
2023/07/26 03:31:45;;;;;;;6.13;3.28;;;;;;;;;;6182333;23;20013;-79
2023/07/26 03:34:11;;;;;;;3.75;3.05;;;;;;;;;;6182501;23;20343;-80
2023/07/26 03:36:37;;;;;;;4.93;3.05;;;;;;;;;;6182294;23;20080;-82
2023/07/26 03:39:04;;;;;;;3.58;2.92;;;;;;;;;;6182379;23;20014;-79
2023/07/26 03:41:30;;;;;;;4.03;3.15;;;;;;;;;;6157481;23;20458;-81
2023/07/26 03:43:56;;;;;;;3.45;2.90;;;;;;;;;;6182053;23;20049;-79
2023/07/26 03:46:22;;;;;;;5.15;3.47;;;;;;;;;;6157398;23;20350;-82
2023/07/26 03:48:48;;;;;;;5.05;2.88;;;12.60;85.20;;;;;;6183326;23;20031;-80
2023/07/26 03:51:14;;;;;;;10.52;3.22;;;;;;;;;;6181637;23;20092;-82
2023/07/26 03:53:40;;;;;;;6.05;2.80;;;;;;;;;;6184052;23;20025;-83
2023/07/26 03:56:06;;;;;;;6.65;2.47;;;;;;;;;;6182456;23;20024;-81
2023/07/26 03:58:32;;;;;;;14.27;3.22;;;;;;;;;;6184040;23;20147;-80
2023/07/26 04:00:58;;;;;;;4.55;3.10;;;12.70;87.00;;;;;;6157943;23;20045;-77
2023/07/26 04:03:24;;;;;;;5.28;3.05;;;12.60;83.40;;;;;;6157846;23;20016;-78
2023/07/26 04:05:50;;;;;;;6.05;3.00;;;;;;;;;;6157463;23;20021;-82
2023/07/26 04:08:16;;;;;;;5.20;3.08;;;12.60;87.50;;;;;;6182492;23;20387;-84
2023/07/26 04:10:42;;;;;;;5.70;2.80;;;12.60;87.50;;;;;;6157356;23;20024;-82
2023/07/26 04:13:08;;;;;;;11.40;3.65;;;;;;;;;;6157952;23;20100;-82
2023/07/26 04:15:34;;;;;;;7.28;3.10;;;;;;;;;;6133263;23;20017;-81
2023/07/26 04:18:00;;;;;;;7.53;2.95;;;;;;;;;;6182035;23;20358;-80
2023/07/26 04:20:26;;;;;;;3.25;2.78;;;12.60;87.00;;;;;;6159084;23;20029;-79
2023/07/26 04:22:52;;;;;;;4.72;3.13;;;;;;;;;;6185590;23;20091;-80
2023/07/26 04:25:19;;;;;;;7.78;3.00;;;;;;;;;;6185573;23;20446;-82
2023/07/26 04:27:45;;;;;;;6.03;3.35;;;;;;;;;;6184220;23;20020;-83
2023/07/26 04:30:11;;;;;;;4.00;3.25;;;;;;;;;;6159546;23;20017;-86
2023/07/26 04:32:37;;;;;;;5.38;2.85;;;;;;;;;;6184468;23;20024;-82
2023/07/26 04:35:03;;;;;;;7.55;3.20;;;;;;;;;;6159536;23;20106;-82
2023/07/26 04:37:29;;;;;;;4.60;2.88;;;;;;;;;;6184029;23;20477;-85
2023/07/26 04:39:55;;;;;;;3.80;2.92;;;;;;;;;;6134647;23;20501;-85
2023/07/26 04:42:21;;;;;;;5.57;3.33;;;;;;;;;;6134761;23;20430;-83
2023/07/26 04:44:47;;;;;;;6.22;3.33;;;12.60;87.80;;;;;;6159201;23;20520;-82
2023/07/26 04:47:15;;;;;;;4.18;3.78;;;;;;;;;;6134745;23;20021;-82
2023/07/26 04:49:41;;;;;;;6.63;3.08;;;12.60;86.70;;;;;;6158903;23;20017;-83
2023/07/26 04:52:07;;;;;;;9.18;2.70;;;12.50;89.90;;;;;;6159197;23;20016;-82
2023/07/26 04:54:33;;;;;;;5.47;3.30;;;;;;;;;;6184378;23;20025;-82
2023/07/26 04:56:59;;;;;;;5.20;2.65;;;;;;;;;;6183922;23;20044;-82
2023/07/26 04:59:25;;;;;;;3.55;2.67;;;;;;;;;;6134725;23;20028;-78
2023/07/26 05:01:51;;;;;;;3.97;3.22;;;12.80;90.20;;;;;;6183949;23;20440;-83
2023/07/26 05:04:17;;;;;;;10.57;3.38;;;;;;;;;;6159034;23;20458;-83
2023/07/26 05:06:43;;;;;;;6.03;3.40;;;;;;;;;;6159129;23;20071;-85
2023/07/26 05:09:09;;;;;;;3.72;3.28;;;13.10;90.50;;;;;;6184466;23;20076;-82
2023/07/26 05:11:35;;;;;;;7.00;2.97;;;;;;;;;;6184885;23;20029;-89
2023/07/26 05:14:01;;;;;;;4.00;3.00;;;;;;;;;;6183963;23;20450;-87
2023/07/26 05:16:27;;;;;;;5.95;3.17;;;;;;;;;;6158932;23;20021;-84
2023/07/26 05:18:57;;;;;;;5.45;3.05;;;;;;;;;;6183335;23;20358;-88
2023/07/26 05:21:24;;;;;;;6.30;2.67;;;;;;;;;;6134483;23;20462;-89
2023/07/26 05:23:50;;;;;;;4.03;2.83;;;;;;;;;;6158585;23;20017;-82
2023/07/26 05:26:16;;;;;;;5.53;2.90;;;;;;;;;;6158649;23;20021;-84
2023/07/26 05:28:42;;;;;;;5.65;3.10;;;;;;;;;;6158962;23;20394;-87
2023/07/26 05:31:08;;;;;;;6.00;2.95;;;;;;;;;;6182874;23;20017;-82
2023/07/26 05:33:34;;;;;;;7.28;2.58;;;;;;;;;;6159113;23;20063;-87
2023/07/26 05:36:00;;;;;;;4.30;2.60;;;;;;;;;;6184989;23;20092;-90
2023/07/26 05:38:26;;;;;;;3.90;2.42;;;;;;;;;;6183920;23;20064;-84
2023/07/26 05:40:53;;;;;;;3.40;2.20;;;;;;;;;;6185488;23;20320;-86
2023/07/26 05:43:19;;;;;;;6.72;2.30;;;;;;;;;;6159165;23;20025;-79
2023/07/26 05:45:45;;;;;;;4.95;1.80;;;;;;;;;;6134668;23;20469;-81
2023/07/26 05:48:11;;;;;;;6.53;2.35;;;;;;;;;;6184873;23;20021;-82
2023/07/26 05:50:37;;;;;;;2.70;1.90;;;;;;;;;;6183942;23;20498;-83
2023/07/26 05:53:03;;;;;;;1.92;1.73;;;;;;;;;;6158335;23;20060;-85
2023/07/26 05:55:29;;;;;;;5.50;1.80;;;;;;;;;;6157971;23;20013;-81
2023/07/26 05:57:55;;;;;;;1.95;1.83;;;;;;;;;;6184637;23;20028;-81
2023/07/26 06:00:22;;;;;;;2.72;2.10;;;;;;;;;;6135524;23;20536;-89
2023/07/26 06:02:48;;;;;;;4.45;2.00;;;;;;;;;;6160162;23;20067;-88
2023/07/26 06:05:20;;;;;;;3.63;2.13;;;;;;;;;;6161452;23;20063;-88
2023/07/26 06:07:48;;;;;;;6.10;1.80;;;;;;;;;;6185097;23;20095;-90
2023/07/26 06:10:19;;;;;;;2.47;1.83;;;;;;;;;;6184767;23;20024;-89
2023/07/26 06:12:47;;;;;;;2.70;1.92;;;;;;;;;;6184949;23;20028;-89
2023/07/26 06:15:13;;;;;;;4.47;1.85;;;;;;;;;;6184923;23;20465;-83
2023/07/26 06:17:39;;;;;;;5.82;1.85;;;;;;;;;;6157818;23;20032;-80
2023/07/26 06:20:07;;;;;;;3.05;2.05;;;;;;;;;;6157745;23;20017;-80
2023/07/26 06:22:33;;;;;;;2.13;1.92;;;;;;;;;;6183346;23;20015;-80
2023/07/26 06:24:59;;;;;;;3.42;2.30;;;13.80;91.60;;;;;;6158157;23;20044;-81
2023/07/26 06:27:28;;;;;;;3.25;2.20;;;13.80;90.40;;;;;;6133953;23;20462;-79
2023/07/26 06:29:55;;;;;;;7.72;2.20;;;;;;;;;;6183093;23;20021;-82
2023/07/26 06:32:21;;;;;;;5.07;2.40;;;;;;;;;;6184075;23;20065;-86
2023/07/26 06:34:46;;;;;;;1.98;1.63;;;13.90;91.70;;;;;;6183617;23;20040;-91
2023/07/26 06:37:12;;;;;;;4.45;1.70;;;;;;;;;;6158995;23;20446;-95
2023/07/26 06:39:38;;;;;;;4.35;2.35;;;;;;;;;;6158982;23;20591;-91
2023/07/26 06:42:05;;;;;;;5.75;2.40;;;;;;;;;;6133958;23;20036;-92
2023/07/26 06:44:31;;;;;;;9.90;2.10;;;;;;;;;;6182677;23;20021;-86
2023/07/26 06:46:57;;;;;;;3.80;2.08;;;14.10;91.60;;;;;;6157899;23;20021;-88
2023/07/26 06:49:23;;;;;;;5.68;1.98;;;;;;;;;;6132159;23;20354;-86
2023/07/26 06:51:51;;;;;;;2.85;2.13;;;;;;;;;;6176314;23;20017;-88
2023/07/26 06:54:19;;;;;;;5.78;2.45;;;;;;;;;;6157338;23;20030;-88
2023/07/26 06:56:47;;;;;;;6.32;2.50;;;;;;;;;;6147468;23;20071;-89
2023/07/26 06:59:13;;;;;;;2.83;1.80;;;;;;;;;;6123293;23;20012;-85
2023/07/26 07:01:39;;;;;;;4.20;2.17;;;;;;;;;;6147042;23;20028;-86
2023/07/26 07:04:06;;;;;;;3.97;2.90;;;;;;;;;;6172128;23;20749;-91
2023/07/26 07:06:32;;;;;;;4.68;2.00;;;;;;;;;;6171895;23;20021;-80
2023/07/26 07:08:58;;;;;;;3.05;2.42;;;;;;;;;;6147408;23;20035;-87
2023/07/26 07:12:03;;;;;;;4.10;2.80;;;;;;;;;;6146764;23;20017;-79
2023/07/26 07:15:03;;;;;;;3.58;2.28;;;;;;;;;;6134519;23;20350;-79
2023/07/26 07:17:33;;;;;;;1.77;1.50;;;;;;;;;;6106903;23;20029;-80
2023/07/26 07:19:59;;;;;;;2.47;1.92;;;;;;;;;;6114521;23;20024;-92
2023/07/26 07:22:25;;;;;;;4.40;1.90;;;;;;;;;;6067158;23;20021;-92
2023/07/26 07:24:53;;;;;;;2.47;2.03;;;;;;;;;;6116058;23;20100;-91
2023/07/26 07:27:19;;;;;;;2.65;2.42;;;;;;;;;;6117258;23;20028;-90
2023/07/26 07:29:46;;;;;;;3.67;1.90;;;;;;;;;;6122630;23;20018;-82
2023/07/26 07:32:12;;;;;;;2.92;2.28;;;;;;;;;;6113544;23;20044;-89
2023/07/26 07:34:38;;;;;;;2.55;2.08;;;;;;;;;;6117155;23;20371;-91
2023/07/26 07:37:04;;;;;;;2.80;2.10;;;14.80;87.70;;;;;;6117271;23;20072;-84
2023/07/26 07:39:30;;;;;;;2.53;1.88;;;;;;;;;;6141894;23;20026;-94
2023/07/26 07:41:56;;;;;;;3.53;2.00;;;;;;;;;;6141443;23;20049;-86
2023/07/26 07:44:22;;;;;;;1.98;1.65;;;15.00;83.40;;;;;;6115796;23;20018;-89
2023/07/26 09:34:06;;;;;;;7.10;2.78;;;;;;;;;;5066703;27;1393693;-89
2023/07/26 09:36:50;;;;;;;3.42;2.90;;;17.40;58.70;;;;;;5041353;28;20051;-79
2023/07/26 09:39:17;;;;;;;6.33;2.27;;;17.30;56.50;;;;;;5095005;28;20056;-85
2023/07/26 09:41:45;;;;;;;5.78;2.45;;;;;;;;;;5081087;28;20181;-79
2023/07/26 09:44:16;;;;;;;3.95;2.60;;;17.50;55.20;;;;;;5083342;28;20052;-86
2023/07/26 09:46:50;;;;;;;2.63;2.25;;;17.70;55.50;;;;;;5061699;28;20779;-87
2023/07/26 09:49:22;;;;;;;2.55;2.03;;;17.60;57.90;;;;;;5061996;28;20123;-86
2023/07/26 09:51:53;;;;;;;5.95;2.47;;;17.50;55.00;;;;;;5062657;28;20066;-83
2023/07/26 09:54:27;;;;;;;4.22;2.40;;;17.50;56.80;;;;;;5048141;28;20051;-86
2023/07/26 09:56:55;;;;;;;2.10;1.90;;;17.30;55.60;;;;;;5085432;28;20082;-83
2023/07/26 09:59:25;;;;;;;3.38;2.40;;;17.20;55.20;;;;;;5052430;28;20048;-78
2023/07/26 10:01:52;;;;;;;2.30;2.05;;;17.10;55.70;;;;;;5063759;28;20131;-83
2023/07/26 10:04:33;;;;;;;3.22;1.63;;;;;;;;;;5076722;28;20560;-80
2023/07/26 10:07:02;;;;;;;3.00;1.92;;;17.30;57.00;;;;;;5068635;28;20040;-86
2023/07/26 10:09:32;;;;;;;2.30;1.75;;;17.20;58.00;;;;;;5089752;28;20043;-81
2023/07/26 10:11:58;;;;;;;2.50;1.67;;;;;;;;;;5091114;28;20753;-83
2023/07/26 10:14:25;;;;;;;1.70;1.55;;;17.40;54.20;;;;;;5075645;28;20048;-77
2023/07/26 10:16:52;;;;;;;1.65;1.55;;;17.60;55.00;;;;;;5077856;28;20056;-86
2023/07/26 10:19:19;;;;;;;1.23;1.00;;;17.40;48.40;;;;;;5059290;28;20039;-78
2023/07/26 10:21:47;;;;;;;1.45;1.35;;;17.50;47.20;;;;;;5039741;28;20136;-78
2023/07/26 10:24:15;;;;;;;2.28;1.40;;;17.70;45.50;;;;;;5055560;28;21289;-81
2023/07/26 10:26:42;;;;;;;2.20;1.20;;;;;;;;;;5034349;28;20037;-77
2023/07/26 10:29:09;;;;;;;2.20;1.60;;;;;;;;;;5071017;28;20045;-78
2023/07/26 10:31:35;;;;;;;1.60;1.50;;;18.00;44.50;;;;;;5030053;28;20533;-84
2023/07/26 10:34:09;;;;;;;2.92;1.52;;;17.90;44.20;;;;;;5057168;28;20151;-88
2023/07/26 10:36:36;;;;;;;5.07;1.77;;;17.90;42.10;;;;;;5037324;28;20760;-88
2023/07/26 10:39:11;;;;;;;2.55;1.90;;;18.10;42.60;;;;;;5036667;28;20053;-79
2023/07/26 10:41:38;;;;;;;2.25;1.70;;;;;;;;;;5055493;28;20041;-85
2023/07/26 10:44:08;;;;;;;2.90;1.30;;;18.00;40.20;;;;;;5028781;28;20068;-81
2023/07/26 10:46:52;;;;;;;0.85;0.85;;;17.70;35.20;;;;;;5056981;28;20080;-82
2023/07/26 10:49:24;;;;;;;2.55;0.77;;;17.20;37.90;;;;;;5009001;28;20053;-81
2023/07/26 10:52:04;;;;;;;2.20;1.10;;;16.90;40.80;;;;;;5042481;28;20063;-80
2023/07/26 10:54:39;;;;;;;1.75;1.23;;;;;;;;;;5037863;28;20079;-86
2023/07/26 10:57:30;;;;;;;2.40;1.20;;;;;;;;;;5025164;28;20060;-87
2023/07/26 11:00:06;;;;;;;6.75;1.80;;;15.80;52.70;;;;;;5032172;28;20555;-84
2023/07/26 11:02:44;;;;;;;1.55;1.23;;;15.80;54.10;;;;;;5023040;28;20041;-85
2023/07/26 11:05:12;;;;;;;3.10;1.15;;;;;;;;;;5039678;28;20041;-84
2023/07/26 11:07:55;;;;;;;2.15;1.50;;;;;;;;;;5036518;28;20052;-82
2023/07/26 11:10:31;;;;;;;4.43;1.33;;;;;;;;;;5059535;28;20049;-86
2023/07/26 11:13:04;;;;;;;2.80;1.35;;;;;;;;;;5043973;28;20040;-85
2023/07/26 11:15:31;;;;;;;1.30;1.20;;;;;;;;;;5032494;28;20166;-80
2023/07/26 11:17:57;;;;;;;2.47;1.40;;;;;;;;;;5039702;28;20079;-85
2023/07/26 11:20:23;;;;;;;2.33;1.30;;;;;;;;;;5027364;28;20052;-85
2023/07/26 11:22:50;;;;;;;5.45;1.70;;;;;;;;;;5032163;28;20496;-88
2023/07/26 11:25:16;;;;;;;2.25;1.30;;;;;;;;;;5027517;28;20032;-85
2023/07/26 11:27:42;;;;;;;1.58;1.33;;;;;;;;;;5031314;28;20464;-87
2023/07/26 11:30:18;;;;;;;2.45;1.50;;;;;;;;;;5033302;28;21436;-89
2023/07/26 11:32:49;;;;;;;1.58;1.48;;;15.60;70.10;;;;;;5025075;28;20424;-83
2023/07/26 11:35:20;;;;;;;5.45;1.92;;;15.60;68.70;;;;;;5038623;28;20420;-82
2023/07/26 11:37:53;;;;;;;1.05;1.00;;;;;;;;;;5044444;28;20151;-85
2023/07/26 11:40:20;;;;;;;1.05;0.80;;;16.00;70.80;;;;;;5024302;28;20036;-87
2023/07/26 11:42:46;;;;;;;1.23;1.13;;;;;;;;;;5052061;28;20159;-84
2023/07/26 11:45:13;;;;;;;1.92;1.45;;;;;;;;;;5034335;28;20052;-79
2023/07/26 11:47:39;;;;;;;2.72;1.35;;;16.50;65.10;;;;;;5035613;28;20132;-87
2023/07/26 11:50:05;;;;;;;2.42;1.38;;;16.20;63.30;;;;;;5052473;28;20055;-90
2023/07/26 11:52:31;;;;;;;4.43;1.40;;;;;;;;;;5022278;28;20480;-83
2023/07/26 11:55:02;;;;;;;1.30;1.20;;;16.60;62.00;;;;;;5018612;28;20032;-83
2023/07/26 11:57:28;;;;;;;3.67;1.38;;;;;;;;;;5037470;28;20067;-82
2023/07/26 12:00:04;;;;;;;2.90;1.75;;;17.10;59.20;;;;;;5037876;28;20066;-84
2023/07/26 12:02:30;;;;;;;1.90;1.73;;;17.30;66.20;;;;;;5051521;28;20048;-87
2023/07/26 12:05:16;;;;;;;4.63;1.33;;;17.50;61.80;;;;;;5054037;28;20053;-81
2023/07/26 12:07:46;;;;;;;1.88;1.27;;;;;;;;;;5024859;28;20129;-84
2023/07/26 12:10:12;;;;;;;2.25;1.63;;;;;;;;;;5040917;28;20041;-92
2023/07/26 12:12:44;;;;;;;3.75;1.77;;;17.70;55.90;;;;;;5032093;28;20086;-88
2023/07/26 12:15:11;;;;;;;6.60;1.50;;;17.80;55.60;;;;;;5011333;28;20492;-91
2023/07/26 12:17:37;;;;;;;4.30;1.75;;;;;;;;;;5008121;28;20124;-91
2023/07/26 12:20:08;;;;;;;3.42;1.45;;;17.60;57.90;;;;;;5044412;28;20098;-91
2023/07/26 12:22:48;;;;;;;3.00;1.63;;;17.70;58.10;;;;;;5006641;28;20139;-90
2023/07/26 12:25:14;;;;;;;1.52;1.40;;;17.80;58.80;;;;;;5045508;28;20068;-88
2023/07/26 12:27:40;;;;;;;2.70;1.65;;;17.80;57.90;;;;;;5027578;28;20135;-89
2023/07/26 12:30:20;;;;;;;2.45;1.65;;;17.80;55.50;;;;;;4997207;28;20128;-79
2023/07/26 12:32:46;;;;;;;8.02;2.58;;;;;;;;;;5022251;28;20106;-90
2023/07/26 12:35:20;;;;;;;4.70;2.53;;;17.60;51.90;;;;;;5035994;28;20048;-78
2023/07/26 12:37:49;;;;;;;2.15;1.75;;;;;;;;;;5021066;28;20048;-92
2023/07/26 12:40:15;;;;;;;2.40;2.08;;;;;;;;;;5013955;28;20045;-92
2023/07/26 12:42:41;;;;;;;4.22;1.70;;;;;;;;;;5036819;28;20446;-88
2023/07/26 12:45:08;;;;;;;1.40;1.30;;;17.50;54.10;;;;;;5011225;28;20381;-87
2023/07/26 12:47:34;;;;;;;3.53;1.80;;;;;;;;;;5039136;28;20044;-93
2023/07/26 12:50:00;;;;;;;6.90;2.28;;;;;;;;;;5049154;28;20123;-87
2023/07/26 12:52:27;;;;;;;4.15;1.85;;;;;;;;;;5057812;28;20047;-83
2023/07/26 12:54:53;;;;;;;8.55;1.98;;;;;;;;;;5057074;28;20098;-82
2023/07/26 12:57:19;;;;;;;4.10;2.03;;;18.30;49.40;;;;;;5059455;28;20043;-90
2023/07/26 12:59:45;;;;;;;8.30;2.10;;;;;;;;;;4997075;28;20041;-89
2023/07/26 13:02:11;;;;;;;3.20;1.88;;;;;;;;;;5053919;28;20400;-88
2023/07/26 13:04:38;;;;;;;3.05;1.45;;;;;;;;;;5036460;28;20222;-87
2023/07/26 13:07:04;;;;;;;3.65;1.80;;;;;;;;;;5035649;28;20096;-90
2023/07/26 13:09:30;;;;;;;1.83;1.38;;;;;;;;;;5032942;28;20033;-88
2023/07/26 13:11:56;;;;;;;2.28;1.75;;;;;;;;;;5035461;28;20036;-89
2023/07/26 13:14:22;;;;;;;1.67;1.42;;;;;;;;;;5032822;28;20106;-84
2023/07/26 13:16:48;;;;;;;5.70;1.90;;;;;;;;;;5034495;28;20121;-82
2023/07/26 13:19:14;;;;;;;3.28;1.70;;;;;;;;;;4997766;28;20492;-82
2023/07/26 13:21:40;;;;;;;2.28;1.52;;;;;;;;;;5031517;28;20464;-78
2023/07/26 13:24:06;;;;;;;4.35;1.88;;;18.60;39.70;;;;;;5028391;28;20377;-81
2023/07/26 13:26:32;;;;;;;4.03;1.60;;;18.30;38.30;;;;;;5026406;28;20052;-80
2023/07/26 13:28:58;;;;;;;2.42;1.83;;;;;;;;;;4998785;28;20045;-82
2023/07/26 13:31:24;;;;;;;4.25;2.05;;;;;;;;;;5034159;28;20055;-79
2023/07/26 13:33:51;;;;;;;3.78;1.42;;;;;;;;;;5008590;28;20045;-83
2023/07/26 13:36:20;;;;;;;4.55;1.30;;;18.80;37.70;;;;;;5022868;28;20048;-88
2023/07/26 13:38:46;;;;;;;2.55;1.52;;;;;;;;;;5020937;28;20070;-91
2023/07/26 13:41:12;;;;;;;4.70;1.45;;;;;;;;;;4998161;28;20044;-89
2023/07/26 13:43:38;;;;;;;1.90;1.70;;;;;;;;;;5026970;28;20049;-93
2023/07/26 13:46:04;;;;;;;1.88;1.40;;;;;;;;;;5037199;28;20036;-81
2023/07/26 13:48:30;;;;;;;2.70;1.98;;;19.50;35.30;;;;;;5007632;28;20405;-90
2023/07/26 13:50:55;;;;;;;5.63;2.35;;;19.50;32.50;;;;;;5001010;28;20044;-90
2023/07/26 13:53:22;;;;;;;3.03;1.85;;;;;;;;;;5056779;28;20796;-92
2023/07/26 13:55:48;;;;;;;3.67;1.58;;;;;;;;;;5026598;28;20048;-86
2023/07/26 13:58:14;;;;;;;1.67;1.40;;;;;;;;;;5028462;28;20068;-78
2023/07/26 14:00:40;;;;;;;1.83;1.30;;;;;;;;;;5029956;28;20041;-90
2023/07/26 14:03:06;;;;;;;3.22;1.50;;;;;;;;;;5025807;28;20041;-85
2023/07/26 14:05:32;;;;;;;1.30;1.20;;;19.50;28.40;;;;;;5040094;28;20178;-85
2023/07/26 14:07:58;;;;;;;1.60;1.50;;;;;;;;;;5026315;28;20083;-86
2023/07/26 14:10:25;;;;;;;3.65;2.25;;;;;;;;;;5044126;28;20068;-79
2023/07/26 14:12:51;;;;;;;3.20;1.40;;;;;;;;;;5029219;28;20048;-85
2023/07/26 14:15:17;;;;;;;2.03;1.70;;;;;;;;;;5051757;28;20709;-83
2023/07/26 14:17:44;;;;;;;1.75;1.38;;;;;;;;;;5060113;28;20135;-91
2023/07/26 14:20:10;;;;;;;3.83;1.77;;;22.40;26.10;;;;;;5022190;28;20562;-89
2023/07/26 14:22:36;;;;;;;1.65;1.38;;;;;;;;;;5045640;28;20052;-91
2023/07/26 14:25:02;;;;;;;2.17;1.63;;;;;;;;;;5050492;28;20056;-89
2023/07/26 14:27:28;;;;;;;3.15;1.80;;;;;;;;;;5034309;28;20056;-86
2023/07/26 14:29:55;;;;;;;2.78;1.77;;;;;;;;;;5058512;28;20083;-85
2023/07/26 14:32:23;;;;;;;4.55;1.85;;;19.90;26.70;;;;;;5042781;28;20045;-86
2023/07/26 14:34:49;;;;;;;2.72;1.70;;;;;;;;;;5017972;28;20060;-92
2023/07/26 14:37:17;;;;;;;3.47;1.92;;;;;;;;;;5021957;28;20112;-90
2023/07/26 14:39:43;;;;;;;5.25;1.95;;;20.00;31.00;;;;;;5017798;28;20044;-90
2023/07/26 14:42:09;;;;;;;5.13;1.65;;;19.90;29.30;;;;;;5009605;28;20038;-89
2023/07/26 14:44:35;;;;;;;1.35;1.25;;;;;;;;;;5022495;28;20050;-89
2023/07/26 14:47:01;;;;;;;6.68;2.05;;;;;;;;;;5016540;28;20045;-87
2023/07/26 14:49:27;;;;;;;2.80;1.77;;;;;;;;;;5012402;28;20038;-87
2023/07/26 14:51:53;;;;;;;2.25;2.08;;;;;;;;;;5022612;28;20069;-91
2023/07/26 14:54:19;;;;;;;3.80;1.50;;;20.20;27.30;;;;;;5012559;28;20041;-89
2023/07/26 14:56:45;;;;;;;2.90;1.70;;;20.60;27.50;;;;;;5006044;28;20045;-81
2023/07/26 14:59:11;;;;;;;2.72;1.90;;;;;;;;;;4991974;28;20041;-78
2023/07/26 15:01:37;;;;;;;1.95;1.80;;;;;;;;;;5014685;28;20041;-82
2023/07/26 15:04:03;;;;;;;2.47;1.75;;;;;;;;;;5015364;28;20132;-85
2023/07/26 15:06:55;;;;;;;3.15;1.77;;;20.40;25.30;;;;;;4988912;28;20144;-86
2023/07/26 15:09:21;;;;;;;4.40;2.40;;;20.30;26.50;;;;;;4994383;28;20077;-86
2023/07/26 15:11:47;;;;;;;3.58;1.92;;;;;;;;;;4998544;28;20517;-80
2023/07/26 15:14:13;;;;;;;3.83;2.00;;;;;;;;;;5006351;28;20383;-87
2023/07/26 15:16:39;;;;;;;6.03;1.83;;;;;;;;;;5006965;28;20889;-87
2023/07/26 15:19:05;;;;;;;2.25;2.05;;;;;;;;;;4988107;28;20045;-79
2023/07/26 15:21:32;;;;;;;3.13;1.60;;;;;;;;;;4984997;28;20228;-89
2023/07/26 15:23:58;;;;;;;3.42;2.17;;;;;;;;;;5002352;28;20137;-90
2023/07/26 15:26:24;;;;;;;3.08;1.90;;;;;;;;;;5010316;28;20844;-85
2023/07/26 15:28:50;;;;;;;4.30;2.30;;;;;;;;;;5001213;28;20045;-86
2023/07/26 15:31:18;;;;;;;3.47;2.15;;;;;;;;;;5002763;28;20056;-78
2023/07/26 15:33:44;;;;;;;6.10;2.17;;;;;;;;;;5013347;28;20049;-82
2023/07/26 15:36:10;;;;;;;2.85;2.20;;;20.20;26.30;;;;;;5018297;28;20044;-82
2023/07/26 15:38:36;;;;;;;4.70;2.20;;;;;;;;;;5023964;28;20114;-81
2023/07/26 15:41:02;;;;;;;3.03;1.88;;;20.30;24.20;;;;;;5026904;28;20080;-84
2023/07/26 15:43:28;;;;;;;3.85;1.80;;;20.10;24.90;;;;;;5014211;28;20132;-90
2023/07/26 15:45:54;;;;;;;2.22;1.98;;;;;;;;;;5029944;28;20220;-86
2023/07/26 15:48:21;;;;;;;2.47;2.08;;;;;;;;;;5013527;28;20041;-85
2023/07/26 15:50:47;;;;;;;3.08;2.13;;;;;;;;;;5034962;28;20044;-88
2023/07/26 15:53:13;;;;;;;1.60;1.50;;;;;;;;;;5032282;28;20472;-90